sensor_id;sensor_type;location;lat;lon;timestamp;P1;durP1;ratioP1;P2;durP2;ratioP2
76290;SDS011;65100;46.884;17.410;2024-02-23T00:00:24;8.37;;;4.10;;
76290;SDS011;65100;46.884;17.410;2024-02-23T00:02:49;9.93;;;3.70;;
76290;SDS011;65100;46.884;17.410;2024-02-23T00:05:15;9.50;;;3.93;;
76290;SDS011;65100;46.884;17.410;2024-02-23T00:07:40;7.88;;;3.60;;
76290;SDS011;65100;46.884;17.410;2024-02-23T00:10:06;7.37;;;3.90;;
76290;SDS011;65100;46.884;17.410;2024-02-23T00:12:31;8.18;;;4.45;;
76290;SDS011;65100;46.884;17.410;2024-02-23T00:14:57;8.70;;;4.00;;
76290;SDS011;65100;46.884;17.410;2024-02-23T00:17:22;8.53;;;3.97;;
76290;SDS011;65100;46.884;17.410;2024-02-23T00:19:48;8.00;;;3.90;;
76290;SDS011;65100;46.884;17.410;2024-02-23T00:22:14;7.93;;;3.70;;
76290;SDS011;65100;46.884;17.410;2024-02-23T00:24:39;8.45;;;4.18;;
76290;SDS011;65100;46.884;17.410;2024-02-23T00:27:05;8.37;;;3.70;;
76290;SDS011;65100;46.884;17.410;2024-02-23T00:29:31;8.95;;;3.80;;
76290;SDS011;65100;46.884;17.410;2024-02-23T00:31:57;8.97;;;4.00;;
76290;SDS011;65100;46.884;17.410;2024-02-23T00:34:22;10.10;;;4.20;;
76290;SDS011;65100;46.884;17.410;2024-02-23T00:40:00;8.20;;;3.73;;
76290;SDS011;65100;46.884;17.410;2024-02-23T00:42:31;8.98;;;4.10;;
76290;SDS011;65100;46.884;17.410;2024-02-23T00:44:57;10.03;;;4.10;;
76290;SDS011;65100;46.884;17.410;2024-02-23T00:47:22;7.28;;;3.47;;
76290;SDS011;65100;46.884;17.410;2024-02-23T00:49:48;9.13;;;3.97;;
76290;SDS011;65100;46.884;17.410;2024-02-23T00:52:14;8.33;;;3.70;;
76290;SDS011;65100;46.884;17.410;2024-02-23T00:54:39;8.43;;;3.80;;
76290;SDS011;65100;46.884;17.410;2024-02-23T00:57:05;8.65;;;4.00;;
76290;SDS011;65100;46.884;17.410;2024-02-23T00:59:30;8.27;;;3.73;;
76290;SDS011;65100;46.884;17.410;2024-02-23T01:01:55;8.37;;;3.70;;
76290;SDS011;65100;46.884;17.410;2024-02-23T01:04:21;7.90;;;3.80;;
76290;SDS011;65100;46.884;17.410;2024-02-23T01:06:46;8.43;;;3.60;;
76290;SDS011;65100;46.884;17.410;2024-02-23T01:09:12;8.57;;;3.85;;
76290;SDS011;65100;46.884;17.410;2024-02-23T01:11:38;8.23;;;3.97;;
76290;SDS011;65100;46.884;17.410;2024-02-23T01:14:03;7.80;;;3.40;;
76290;SDS011;65100;46.884;17.410;2024-02-23T01:16:29;8.27;;;3.60;;
76290;SDS011;65100;46.884;17.410;2024-02-23T01:18:54;8.57;;;3.67;;
76290;SDS011;65100;46.884;17.410;2024-02-23T01:21:20;8.43;;;3.70;;
76290;SDS011;65100;46.884;17.410;2024-02-23T01:23:45;8.57;;;3.07;;
76290;SDS011;65100;46.884;17.410;2024-02-23T01:26:10;8.13;;;3.57;;
76290;SDS011;65100;46.884;17.410;2024-02-23T01:28:36;7.10;;;3.43;;
76290;SDS011;65100;46.884;17.410;2024-02-23T01:31:01;9.80;;;3.40;;
76290;SDS011;65100;46.884;17.410;2024-02-23T01:33:27;7.97;;;3.85;;
76290;SDS011;65100;46.884;17.410;2024-02-23T01:35:52;7.97;;;3.77;;
76290;SDS011;65100;46.884;17.410;2024-02-23T01:38:18;8.00;;;3.53;;
76290;SDS011;65100;46.884;17.410;2024-02-23T01:40:47;6.82;;;3.78;;
76290;SDS011;65100;46.884;17.410;2024-02-23T01:43:13;7.18;;;3.40;;
76290;SDS011;65100;46.884;17.410;2024-02-23T01:45:39;7.97;;;3.43;;
76290;SDS011;65100;46.884;17.410;2024-02-23T01:48:04;7.25;;;3.40;;
76290;SDS011;65100;46.884;17.410;2024-02-23T01:50:31;7.28;;;3.30;;
76290;SDS011;65100;46.884;17.410;2024-02-23T01:52:58;8.50;;;3.67;;
76290;SDS011;65100;46.884;17.410;2024-02-23T01:55:26;7.43;;;3.63;;
76290;SDS011;65100;46.884;17.410;2024-02-23T01:57:52;6.88;;;3.35;;
76290;SDS011;65100;46.884;17.410;2024-02-23T02:00:18;8.18;;;3.30;;
76290;SDS011;65100;46.884;17.410;2024-02-23T02:02:44;7.90;;;3.10;;
76290;SDS011;65100;46.884;17.410;2024-02-23T02:05:10;6.38;;;2.90;;
76290;SDS011;65100;46.884;17.410;2024-02-23T02:07:36;7.20;;;3.03;;
76290;SDS011;65100;46.884;17.410;2024-02-23T02:10:02;6.57;;;2.80;;
76290;SDS011;65100;46.884;17.410;2024-02-23T02:12:31;6.47;;;2.95;;
76290;SDS011;65100;46.884;17.410;2024-02-23T02:14:56;6.57;;;2.83;;
76290;SDS011;65100;46.884;17.410;2024-02-23T02:17:22;6.07;;;2.60;;
76290;SDS011;65100;46.884;17.410;2024-02-23T02:19:47;6.40;;;2.90;;
76290;SDS011;65100;46.884;17.410;2024-02-23T02:22:13;6.15;;;2.50;;
76290;SDS011;65100;46.884;17.410;2024-02-23T02:24:39;7.30;;;2.60;;
76290;SDS011;65100;46.884;17.410;2024-02-23T02:27:07;6.20;;;2.65;;
76290;SDS011;65100;46.884;17.410;2024-02-23T02:29:33;5.60;;;2.40;;
76290;SDS011;65100;46.884;17.410;2024-02-23T02:31:59;5.85;;;2.50;;
76290;SDS011;65100;46.884;17.410;2024-02-23T02:34:25;6.00;;;2.57;;
76290;SDS011;65100;46.884;17.410;2024-02-23T02:36:50;6.35;;;2.40;;
76290;SDS011;65100;46.884;17.410;2024-02-23T02:39:16;5.80;;;2.50;;
76290;SDS011;65100;46.884;17.410;2024-02-23T02:41:41;5.37;;;2.47;;
76290;SDS011;65100;46.884;17.410;2024-02-23T02:44:07;6.23;;;2.90;;
76290;SDS011;65100;46.884;17.410;2024-02-23T02:46:34;5.97;;;2.40;;
76290;SDS011;65100;46.884;17.410;2024-02-23T02:49:00;6.03;;;2.10;;
76290;SDS011;65100;46.884;17.410;2024-02-23T02:51:26;5.20;;;1.92;;
76290;SDS011;65100;46.884;17.410;2024-02-23T02:53:51;5.33;;;2.10;;
76290;SDS011;65100;46.884;17.410;2024-02-23T02:56:17;4.67;;;2.00;;
76290;SDS011;65100;46.884;17.410;2024-02-23T02:58:42;4.53;;;1.77;;
76290;SDS011;65100;46.884;17.410;2024-02-23T03:01:08;3.80;;;1.80;;
76290;SDS011;65100;46.884;17.410;2024-02-23T03:03:33;4.27;;;1.80;;
76290;SDS011;65100;46.884;17.410;2024-02-23T03:05:59;4.25;;;1.60;;
76290;SDS011;65100;46.884;17.410;2024-02-23T03:08:25;5.30;;;1.70;;
76290;SDS011;65100;46.884;17.410;2024-02-23T03:10:51;4.00;;;1.70;;
76290;SDS011;65100;46.884;17.410;2024-02-23T03:13:16;4.07;;;1.63;;
76290;SDS011;65100;46.884;17.410;2024-02-23T03:15:42;2.87;;;1.40;;
76290;SDS011;65100;46.884;17.410;2024-02-23T03:18:07;3.30;;;1.40;;
76290;SDS011;65100;46.884;17.410;2024-02-23T03:20:34;3.60;;;1.70;;
76290;SDS011;65100;46.884;17.410;2024-02-23T03:23:00;3.33;;;1.40;;
76290;SDS011;65100;46.884;17.410;2024-02-23T03:25:28;5.03;;;1.70;;
76290;SDS011;65100;46.884;17.410;2024-02-23T03:27:54;4.15;;;1.60;;
76290;SDS011;65100;46.884;17.410;2024-02-23T03:30:19;3.70;;;1.73;;
76290;SDS011;65100;46.884;17.410;2024-02-23T03:32:45;4.25;;;1.60;;
76290;SDS011;65100;46.884;17.410;2024-02-23T03:35:12;4.47;;;1.60;;
76290;SDS011;65100;46.884;17.410;2024-02-23T03:37:38;4.13;;;1.90;;
76290;SDS011;65100;46.884;17.410;2024-02-23T03:40:04;3.75;;;1.90;;
76290;SDS011;65100;46.884;17.410;2024-02-23T03:42:31;4.93;;;1.70;;
76290;SDS011;65100;46.884;17.410;2024-02-23T03:44:56;3.87;;;1.70;;
76290;SDS011;65100;46.884;17.410;2024-02-23T03:47:21;4.47;;;1.97;;
76290;SDS011;65100;46.884;17.410;2024-02-23T03:49:47;4.03;;;1.40;;
76290;SDS011;65100;46.884;17.410;2024-02-23T03:52:12;3.70;;;1.43;;
76290;SDS011;65100;46.884;17.410;2024-02-23T03:54:38;3.92;;;1.40;;
76290;SDS011;65100;46.884;17.410;2024-02-23T03:57:03;3.17;;;1.50;;
76290;SDS011;65100;46.884;17.410;2024-02-23T03:59:29;5.20;;;1.50;;
76290;SDS011;65100;46.884;17.410;2024-02-23T04:01:54;3.25;;;1.20;;
76290;SDS011;65100;46.884;17.410;2024-02-23T04:04:20;2.90;;;1.23;;
76290;SDS011;65100;46.884;17.410;2024-02-23T04:06:45;3.63;;;1.40;;
76290;SDS011;65100;46.884;17.410;2024-02-23T04:09:11;4.60;;;1.57;;
76290;SDS011;65100;46.884;17.410;2024-02-23T04:11:36;3.37;;;1.53;;
76290;SDS011;65100;46.884;17.410;2024-02-23T04:14:02;3.93;;;1.43;;
76290;SDS011;65100;46.884;17.410;2024-02-23T04:16:30;3.60;;;1.33;;
76290;SDS011;65100;46.884;17.410;2024-02-23T04:18:55;3.30;;;1.50;;
76290;SDS011;65100;46.884;17.410;2024-02-23T04:21:21;4.23;;;1.40;;
76290;SDS011;65100;46.884;17.410;2024-02-23T04:23:47;3.35;;;1.48;;
76290;SDS011;65100;46.884;17.410;2024-02-23T04:26:12;3.33;;;1.50;;
76290;SDS011;65100;46.884;17.410;2024-02-23T04:28:41;3.22;;;1.33;;
76290;SDS011;65100;46.884;17.410;2024-02-23T04:31:10;2.78;;;1.30;;
76290;SDS011;65100;46.884;17.410;2024-02-23T04:33:38;2.70;;;1.23;;
76290;SDS011;65100;46.884;17.410;2024-02-23T04:36:04;3.53;;;1.55;;
76290;SDS011;65100;46.884;17.410;2024-02-23T04:38:30;3.80;;;1.50;;
76290;SDS011;65100;46.884;17.410;2024-02-23T04:40:56;3.50;;;1.50;;
76290;SDS011;65100;46.884;17.410;2024-02-23T04:43:23;3.40;;;1.77;;
76290;SDS011;65100;46.884;17.410;2024-02-23T04:45:49;4.07;;;1.50;;
76290;SDS011;65100;46.884;17.410;2024-02-23T04:48:15;2.97;;;1.30;;
76290;SDS011;65100;46.884;17.410;2024-02-23T04:50:41;3.53;;;1.67;;
76290;SDS011;65100;46.884;17.410;2024-02-23T04:53:06;3.57;;;1.60;;
76290;SDS011;65100;46.884;17.410;2024-02-23T04:55:33;5.30;;;2.33;;
76290;SDS011;65100;46.884;17.410;2024-02-23T04:57:58;3.40;;;1.52;;
76290;SDS011;65100;46.884;17.410;2024-02-23T05:00:24;3.83;;;1.60;;
76290;SDS011;65100;46.884;17.410;2024-02-23T05:02:53;3.80;;;1.40;;
76290;SDS011;65100;46.884;17.410;2024-02-23T05:05:19;4.37;;;1.50;;
76290;SDS011;65100;46.884;17.410;2024-02-23T05:07:46;3.63;;;1.45;;
76290;SDS011;65100;46.884;17.410;2024-02-23T05:10:12;4.57;;;1.97;;
76290;SDS011;65100;46.884;17.410;2024-02-23T05:12:37;3.97;;;1.50;;
76290;SDS011;65100;46.884;17.410;2024-02-23T05:15:03;3.92;;;1.60;;
76290;SDS011;65100;46.884;17.410;2024-02-23T05:17:28;3.63;;;1.30;;
76290;SDS011;65100;46.884;17.410;2024-02-23T05:19:54;3.57;;;1.33;;
76290;SDS011;65100;46.884;17.410;2024-02-23T05:22:19;3.78;;;1.50;;
76290;SDS011;65100;46.884;17.410;2024-02-23T05:24:44;4.00;;;1.53;;
76290;SDS011;65100;46.884;17.410;2024-02-23T05:27:10;3.67;;;1.80;;
76290;SDS011;65100;46.884;17.410;2024-02-23T05:29:36;3.55;;;1.48;;
76290;SDS011;65100;46.884;17.410;2024-02-23T05:32:01;3.50;;;1.63;;
76290;SDS011;65100;46.884;17.410;2024-02-23T05:34:27;3.50;;;1.70;;
76290;SDS011;65100;46.884;17.410;2024-02-23T05:36:52;3.47;;;1.63;;
76290;SDS011;65100;46.884;17.410;2024-02-23T05:39:17;3.90;;;1.90;;
76290;SDS011;65100;46.884;17.410;2024-02-23T05:41:43;3.67;;;1.97;;
76290;SDS011;65100;46.884;17.410;2024-02-23T05:44:09;4.43;;;1.70;;
76290;SDS011;65100;46.884;17.410;2024-02-23T05:46:35;4.20;;;1.40;;
76290;SDS011;65100;46.884;17.410;2024-02-23T05:49:02;4.00;;;1.40;;
76290;SDS011;65100;46.884;17.410;2024-02-23T05:51:29;3.90;;;1.73;;
76290;SDS011;65100;46.884;17.410;2024-02-23T05:53:55;4.22;;;1.85;;
76290;SDS011;65100;46.884;17.410;2024-02-23T05:56:21;4.05;;;1.70;;
76290;SDS011;65100;46.884;17.410;2024-02-23T05:58:48;3.37;;;1.47;;
76290;SDS011;65100;46.884;17.410;2024-02-23T06:01:14;4.47;;;1.75;;
76290;SDS011;65100;46.884;17.410;2024-02-23T06:03:39;4.73;;;1.80;;
76290;SDS011;65100;46.884;17.410;2024-02-23T06:06:08;3.97;;;1.60;;
76290;SDS011;65100;46.884;17.410;2024-02-23T06:08:33;3.72;;;1.40;;
76290;SDS011;65100;46.884;17.410;2024-02-23T06:10:59;3.45;;;1.38;;
76290;SDS011;65100;46.884;17.410;2024-02-23T06:13:25;3.23;;;1.40;;
76290;SDS011;65100;46.884;17.410;2024-02-23T06:15:50;3.15;;;1.40;;
76290;SDS011;65100;46.884;17.410;2024-02-23T06:18:16;4.50;;;1.70;;
76290;SDS011;65100;46.884;17.410;2024-02-23T06:21:02;3.50;;;1.52;;
76290;SDS011;65100;46.884;17.410;2024-02-23T06:23:30;3.20;;;1.50;;
76290;SDS011;65100;46.884;17.410;2024-02-23T06:25:55;4.37;;;1.50;;
76290;SDS011;65100;46.884;17.410;2024-02-23T06:28:21;4.13;;;1.90;;
76290;SDS011;65100;46.884;17.410;2024-02-23T06:30:46;3.53;;;1.40;;
76290;SDS011;65100;46.884;17.410;2024-02-23T06:33:12;3.73;;;1.57;;
76290;SDS011;65100;46.884;17.410;2024-02-23T06:35:37;3.53;;;1.60;;
76290;SDS011;65100;46.884;17.410;2024-02-23T06:38:03;4.30;;;1.30;;
76290;SDS011;65100;46.884;17.410;2024-02-23T06:40:30;3.58;;;1.60;;
76290;SDS011;65100;46.884;17.410;2024-02-23T06:42:56;4.17;;;1.80;;
76290;SDS011;65100;46.884;17.410;2024-02-23T06:45:21;3.53;;;1.60;;
76290;SDS011;65100;46.884;17.410;2024-02-23T06:47:50;3.70;;;1.60;;
76290;SDS011;65100;46.884;17.410;2024-02-23T06:50:16;3.38;;;1.60;;
76290;SDS011;65100;46.884;17.410;2024-02-23T06:52:41;3.50;;;1.67;;
76290;SDS011;65100;46.884;17.410;2024-02-23T06:55:07;3.87;;;1.60;;
76290;SDS011;65100;46.884;17.410;2024-02-23T06:57:37;3.20;;;1.40;;
